Time,TemperatureF,DewpointF,PressureIn,WindDirection,WindDirectionDegrees,WindSpeedMPH,WindSpeedGustMPH,Humidity,HourlyPrecipIn,Conditions,Clouds,dailyrainin,SoftwareType,DateUTC
2013-07-11 00:00:00,54.3,51.1,30.24,East,81,0.0,2.0,89,0.00,CLR,,0.00,WeatherDisplay:10.37,2013-07-10 23:00:00,
2013-07-11 00:10:00,54.3,51.1,30.24,East,96,0.0,0.0,89,0.00,CLR,,0.00,WeatherDisplay:10.37,2013-07-10 23:10:00,
2013-07-11 00:20:00,54.5,51.3,30.24,East,90,0.0,0.0,89,0.00,CLR,,0.00,WeatherDisplay:10.37,2013-07-10 23:20:00,
2013-07-11 00:30:00,54.6,51.4,30.24,East,90,0.0,0.0,89,0.00,CLR,,0.00,WeatherDisplay:10.37,2013-07-10 23:30:00,
2013-07-11 00:40:00,54.6,51.4,30.24,East,90,0.0,0.0,89,0.00,CLR,,0.00,WeatherDisplay:10.37,2013-07-10 23:40:00,
2013-07-11 00:50:00,54.9,51.7,30.24,East,90,0.0,0.0,89,0.00,CLR,,0.00,WeatherDisplay:10.37,2013-07-10 23:50:00,
2013-07-11 01:00:00,54.9,51.7,30.24,ESE,105,0.0,0.0,89,0.00,CLR,,0.00,WeatherDisplay:10.37,2013-07-11 00:00:00,
2013-07-11 01:10:00,54.9,51.7,30.24,ESE,112,0.0,0.0,89,0.00,CLR,,0.00,WeatherDisplay:10.37,2013-07-11 00:10:00,
2013-07-11 01:20:00,55.0,51.9,30.24,ESE,104,0.0,0.0,89,0.00,CLR,,0.00,WeatherDisplay:10.37,2013-07-11 00:20:00,
2013-07-11 01:30:00,55.0,51.9,30.24,East,90,0.0,0.0,89,0.00,CLR,,0.00,WeatherDisplay:10.37,2013-07-11 00:30:00,
2013-07-11 01:40:00,55.0,51.9,30.24,East,90,0.0,0.0,89,0.00,CLR,,0.00,WeatherDisplay:10.37,2013-07-11 00:40:00,
2013-07-11 01:50:00,55.1,51.9,30.23,East,90,0.0,0.0,89,0.00,CLR,,0.00,WeatherDisplay:10.37,2013-07-11 00:50:00,
2013-07-11 02:00:00,55.2,52.0,30.23,East,90,0.0,0.0,89,0.00,CLR,,0.00,WeatherDisplay:10.37,2013-07-11 01:00:00,
2013-07-11 02:10:00,55.4,52.2,30.23,East,90,0.0,0.0,89,0.00,CLR,,0.00,WeatherDisplay:10.37,2013-07-11 01:10:00,
2013-07-11 02:20:00,55.2,51.7,30.23,SE,130,1.0,3.0,88,0.00,CLR,,0.00,WeatherDisplay:10.37,2013-07-11 01:20:00,
2013-07-11 02:30:00,55.0,51.5,30.23,South,188,2.0,3.0,88,0.00,CLR,,0.00,WeatherDisplay:10.37,2013-07-11 01:30:00,
2013-07-11 02:40:00,55.0,51.5,30.23,SSW,202,2.0,4.0,88,0.00,CLR,,0.00,WeatherDisplay:10.37,2013-07-11 01:40:00,
2013-07-11 02:50:00,54.9,51.4,30.23,SSW,202,1.0,5.0,88,0.00,CLR,,0.00,WeatherDisplay:10.37,2013-07-11 01:50:00,
2013-07-11 03:00:00,54.7,51.2,30.22,SSW,202,0.0,4.0,88,0.00,CLR,,0.00,WeatherDisplay:10.37,2013-07-11 02:00:00,
2013-07-11 03:10:00,54.5,51.1,30.22,SSW,202,0.0,0.0,88,0.00,CLR,,0.00,WeatherDisplay:10.37,2013-07-11 02:10:00,
2013-07-11 03:20:00,54.5,51.0,30.23,SSW,202,0.0,0.0,88,0.00,CLR,,0.00,WeatherDisplay:10.37,2013-07-11 02:20:00,
2013-07-11 03:30:00,54.5,51.0,30.23,SSW,202,1.0,2.0,88,0.00,CLR,,0.00,WeatherDisplay:10.37,2013-07-11 02:30:00,
2013-07-11 03:40:00,54.4,51.2,30.23,SSW,202,1.0,2.0,89,0.00,CLR,,0.00,WeatherDisplay:10.37,2013-07-11 02:40:00,
2013-07-11 04:10:00,54.2,51.0,30.23,SSW,202,2.0,4.0,89,0.00,CLR,,0.00,WeatherDisplay:10.37,2013-07-11 03:10:00,
2013-07-11 04:20:00,54.1,50.9,30.22,SSW,202,1.0,3.0,89,0.00,CLR,,0.00,WeatherDisplay:10.37,2013-07-11 03:20:00,
2013-07-11 04:30:00,54.0,50.8,30.22,SSW,202,0.0,2.0,89,0.00,CLR,,0.00,WeatherDisplay:10.37,2013-07-11 03:30:00,
2013-07-11 04:40:00,54.0,50.8,30.22,SSW,202,0.0,1.0,89,0.00,CLR,,0.00,WeatherDisplay:10.37,2013-07-11 03:40:00,
2013-07-11 04:50:00,54.1,51.0,30.22,SSW,202,0.0,0.0,89,0.00,CLR,,0.00,WeatherDisplay:10.37,2013-07-11 03:50:00,
2013-07-11 05:00:00,54.1,51.0,30.22,SSW,202,0.0,0.0,89,0.00,CLR,,0.00,WeatherDisplay:10.37,2013-07-11 04:00:00,
2013-07-11 05:10:00,54.3,51.4,30.22,SSW,202,0.0,0.0,90,0.00,CLR,,0.00,WeatherDisplay:10.37,2013-07-11 04:10:00,
2013-07-11 05:20:00,54.4,51.5,30.22,SSW,202,0.0,0.0,90,0.00,CLR,,0.00,WeatherDisplay:10.37,2013-07-11 04:20:00,
2013-07-11 05:30:00,54.5,51.6,30.22,SSW,202,0.0,0.0,90,0.00,CLR,,0.00,WeatherDisplay:10.37,2013-07-11 04:30:00,
2013-07-11 05:40:00,54.9,52.0,30.22,SSW,202,0.0,1.0,90,0.00,CLR,,0.00,WeatherDisplay:10.37,2013-07-11 04:40:00,
2013-07-11 05:50:00,55.0,52.2,30.22,SSW,202,0.0,1.0,90,0.00,CLR,,0.00,WeatherDisplay:10.37,2013-07-11 04:50:00,
2013-07-11 06:00:00,55.2,52.3,30.22,SSE,153,1.0,3.0,90,0.00,CLR,,0.00,WeatherDisplay:10.37,2013-07-11 05:00:00,
2013-07-11 06:10:00,55.2,52.3,30.22,East,84,2.0,3.0,90,0.00,CLR,,0.00,WeatherDisplay:10.37,2013-07-11 05:10:00,
2013-07-11 06:20:00,55.2,52.6,30.21,East,79,2.0,3.0,91,0.00,CLR,,0.00,WeatherDisplay:10.37,2013-07-11 05:20:00,
2013-07-11 06:30:00,55.2,52.6,30.22,ENE,74,1.0,2.0,91,0.00,CLR,,0.00,WeatherDisplay:10.37,2013-07-11 05:30:00,
2013-07-11 06:40:00,55.6,53.0,30.22,East,89,0.0,2.0,91,0.00,CLR,,0.00,WeatherDisplay:10.37,2013-07-11 05:40:00,
2013-07-11 06:50:00,55.6,53.0,30.22,East,88,2.0,3.0,91,0.00,CLR,,0.00,WeatherDisplay:10.37,2013-07-11 05:50:00,
2013-07-11 07:00:00,55.8,53.2,30.21,East,87,1.0,3.0,91,0.00,CLR,,0.00,WeatherDisplay:10.37,2013-07-11 06:00:00,
2013-07-11 07:10:00,56.1,53.5,30.22,East,92,0.0,2.0,91,0.00,CLR,,0.00,WeatherDisplay:10.37,2013-07-11 06:10:00,
2013-07-11 07:20:00,56.4,53.8,30.21,East,92,0.0,4.0,91,0.00,CLR,,0.00,WeatherDisplay:10.37,2013-07-11 06:20:00,
2013-07-11 07:30:00,56.7,54.1,30.21,East,84,2.0,4.0,91,0.00,CLR,,0.00,WeatherDisplay:10.37,2013-07-11 06:30:00,
2013-07-11 07:40:00,56.8,54.2,30.21,East,92,2.0,5.0,91,0.00,CLR,,0.00,WeatherDisplay:10.37,2013-07-11 06:40:00,
2013-07-11 07:50:00,57.4,54.8,30.21,East,92,2.0,4.0,91,0.00,CLR,,0.00,WeatherDisplay:10.37,2013-07-11 06:50:00,
2013-07-11 08:00:00,57.7,55.1,30.21,East,93,2.0,5.0,91,0.00,CLR,,0.00,WeatherDisplay:10.37,2013-07-11 07:00:00,
2013-07-11 08:10:00,58.5,55.5,30.21,East,90,2.0,3.0,90,0.00,CLR,,0.00,WeatherDisplay:10.37,2013-07-11 07:10:00,
2013-07-11 08:20:00,58.6,55.4,30.22,East,83,2.0,5.0,89,0.00,CLR,,0.00,WeatherDisplay:10.37,2013-07-11 07:20:00,
2013-07-11 08:30:00,58.8,55.6,30.22,East,92,1.0,4.0,89,0.00,CLR,,0.00,WeatherDisplay:10.37,2013-07-11 07:30:00,
2013-07-11 08:40:00,59.7,56.1,30.22,East,89,1.0,3.0,88,0.00,CLR,,0.00,WeatherDisplay:10.37,2013-07-11 07:40:00,
2013-07-11 08:50:00,60.4,56.6,30.22,East,100,1.0,3.0,87,0.00,CLR,,0.00,WeatherDisplay:10.37,2013-07-11 07:50:00,
2013-07-11 09:00:00,61.2,56.9,30.21,East,97,1.0,3.0,86,0.00,CLR,,0.00,WeatherDisplay:10.37,2013-07-11 08:00:00,
2013-07-11 09:10:00,62.2,57.3,30.21,East,92,2.0,3.0,84,0.00,CLR,,0.00,WeatherDisplay:10.37,2013-07-11 08:10:00,
2013-07-11 09:20:00,63.0,57.4,30.21,East,90,3.0,5.0,82,0.00,CLR,,0.00,WeatherDisplay:10.37,2013-07-11 08:20:00,
2013-07-11 09:30:00,63.5,57.2,30.21,East,84,2.0,4.0,80,0.00,CLR,,0.00,WeatherDisplay:10.37,2013-07-11 08:30:00,
2013-07-11 09:40:00,64.0,57.0,30.21,ESE,102,1.0,4.0,78,0.00,CLR,,0.00,WeatherDisplay:10.37,2013-07-11 08:40:00,
2013-07-11 09:50:00,64.5,57.1,30.21,East,96,1.0,4.0,77,0.00,CLR,,0.00,WeatherDisplay:10.37,2013-07-11 08:50:00,
2013-07-11 10:00:00,64.6,56.5,30.21,ENE,76,3.0,4.0,75,0.00,CLR,,0.00,WeatherDisplay:10.37,2013-07-11 09:00:00,
2013-07-11 10:10:00,65.3,57.2,30.20,East,81,2.0,4.0,75,0.00,CLR,,0.00,WeatherDisplay:10.37,2013-07-11 09:10:00,
2013-07-11 10:20:00,67.2,58.3,30.20,East,90,1.0,3.0,73,0.00,CLR,,0.00,WeatherDisplay:10.37,2013-07-11 09:20:00,
2013-07-11 10:30:00,68.9,59.1,30.20,ENE,77,0.0,1.0,71,0.00,CLR,,0.00,WeatherDisplay:10.37,2013-07-11 09:30:00,
2013-07-11 10:40:00,70.4,59.4,30.20,East,80,0.0,2.0,68,0.00,CLR,,0.00,WeatherDisplay:10.37,2013-07-11 09:40:00,
2013-07-11 10:50:00,71.4,60.3,30.20,WNW,292,1.0,3.0,68,0.00,CLR,,0.00,WeatherDisplay:10.37,2013-07-11 09:50:00,
2013-07-11 11:00:00,71.4,58.6,30.20,NW,323,2.0,5.0,64,0.00,CLR,,0.00,WeatherDisplay:10.37,2013-07-11 10:00:00,
2013-07-11 11:10:00,71.8,58.9,30.20,NW,326,2.0,5.0,64,0.00,CLR,,0.00,WeatherDisplay:10.37,2013-07-11 10:10:00,
2013-07-11 11:20:00,72.3,59.0,30.20,NW,323,1.0,5.0,63,0.00,CLR,,0.00,WeatherDisplay:10.37,2013-07-11 10:20:00,
2013-07-11 11:30:00,73.8,59.9,30.19,NW,308,3.0,5.0,62,0.00,CLR,,0.00,WeatherDisplay:10.37,2013-07-11 10:30:00,
2013-07-11 11:40:00,74.1,59.3,30.19,NNW,339,0.0,5.0,60,0.00,CLR,,0.00,WeatherDisplay:10.37,2013-07-11 10:40:00,
2013-07-11 11:50:00,77.0,61.1,30.19,ENE,66,3.0,6.0,58,0.00,CLR,,0.00,WeatherDisplay:10.37,2013-07-11 10:50:00,
2013-07-11 12:00:00,78.9,60.8,30.19,East,100,1.0,7.0,54,0.00,CLR,,0.00,WeatherDisplay:10.37,2013-07-11 11:00:00,
2013-07-11 12:10:00,78.5,58.9,30.19,ENE,74,2.0,5.0,51,0.00,CLR,,0.00,WeatherDisplay:10.37,2013-07-11 11:10:00,
2013-07-11 12:20:00,77.9,59.4,30.19,East,80,3.0,7.0,53,0.00,CLR,,0.00,WeatherDisplay:10.37,2013-07-11 11:20:00,
2013-07-11 12:30:00,77.7,59.2,30.19,East,87,0.0,5.0,53,0.00,CLR,,0.00,WeatherDisplay:10.37,2013-07-11 11:30:00,
2013-07-11 12:40:00,78.8,59.7,30.19,ESE,118,2.0,6.0,52,0.00,CLR,,0.00,WeatherDisplay:10.37,2013-07-11 11:40:00,
2013-07-11 12:50:00,79.9,59.6,30.18,East,88,1.0,6.0,50,0.00,CLR,,0.00,WeatherDisplay:10.37,2013-07-11 11:50:00,
2013-07-11 13:00:00,81.3,60.9,30.18,East,97,3.0,7.0,50,0.00,CLR,,0.00,WeatherDisplay:10.37,2013-07-11 12:00:00,
2013-07-11 13:10:00,81.9,61.5,30.18,East,91,2.0,9.0,50,0.00,CLR,,0.00,WeatherDisplay:10.37,2013-07-11 12:10:00,
2013-07-11 13:20:00,81.0,60.1,30.18,East,82,7.0,9.0,49,0.00,CLR,,0.00,WeatherDisplay:10.37,2013-07-11 12:20:00,
2013-07-11 13:30:00,81.0,60.6,30.18,East,89,6.0,8.0,50,0.00,CLR,,0.00,WeatherDisplay:10.37,2013-07-11 12:30:00,
2013-07-11 13:40:00,81.5,61.0,30.18,East,89,7.0,10.0,50,0.00,CLR,,0.00,WeatherDisplay:10.37,2013-07-11 12:40:00,
2013-07-11 13:50:00,82.6,62.1,30.18,East,83,5.0,8.0,50,0.00,CLR,,0.00,WeatherDisplay:10.37,2013-07-11 12:50:00,
2013-07-11 14:00:00,83.8,61.4,30.17,East,90,5.0,8.0,47,0.00,CLR,,0.00,WeatherDisplay:10.37,2013-07-11 13:00:00,
2013-07-11 14:10:00,85.1,63.2,30.17,East,89,6.0,8.0,48,0.00,CLR,,0.00,WeatherDisplay:10.37,2013-07-11 13:10:00,
2013-07-11 14:20:00,86.2,61.7,30.17,East,81,5.0,7.0,44,0.00,CLR,,0.00,WeatherDisplay:10.37,2013-07-11 13:20:00,
2013-07-11 14:30:00,84.7,61.0,30.17,East,100,3.0,6.0,45,0.00,CLR,,0.00,WeatherDisplay:10.37,2013-07-11 13:30:00,
2013-07-11 14:50:00,81.4,60.4,30.17,ESE,111,0.0,7.0,49,0.00,CLR,,0.00,WeatherDisplay:10.37,2013-07-11 13:50:00,
2013-07-11 15:00:00,82.6,60.9,30.17,ESE,102,2.0,7.0,48,0.00,CLR,,0.00,WeatherDisplay:10.37,2013-07-11 14:00:00,
2013-07-11 15:20:00,86.7,61.5,30.17,SW,215,1.0,4.0,43,0.00,CLR,,0.00,WeatherDisplay:10.37,2013-07-11 14:20:00,
2013-07-11 15:30:00,88.2,61.5,30.16,SE,140,2.0,5.0,41,0.00,CLR,,0.00,WeatherDisplay:10.37,2013-07-11 14:30:00,
2013-07-11 15:40:00,88.2,60.1,30.16,ENE,74,2.0,5.0,39,0.00,CLR,,0.00,WeatherDisplay:10.37,2013-07-11 14:40:00,
2013-07-11 15:50:00,87.5,59.5,30.16,East,81,5.0,5.0,39,0.00,CLR,,0.00,WeatherDisplay:10.37,2013-07-11 14:50:00,
2013-07-11 16:00:00,87.6,59.5,30.16,South,169,1.0,6.0,39,0.00,CLR,,0.00,WeatherDisplay:10.37,2013-07-11 15:00:00,
2013-07-11 16:10:00,87.4,58.0,30.16,SSW,209,0.0,4.0,37,0.00,CLR,,0.00,WeatherDisplay:10.37,2013-07-11 15:10:00,
2013-07-11 16:20:00,88.0,58.4,30.15,NNW,342,1.0,4.0,37,0.00,CLR,,0.00,WeatherDisplay:10.37,2013-07-11 15:20:00,
2013-07-11 16:30:00,87.3,57.0,30.15,SSW,206,2.0,5.0,36,0.00,CLR,,0.00,WeatherDisplay:10.37,2013-07-11 15:30:00,
2013-07-11 16:40:00,86.9,57.5,30.15,SSE,165,1.0,4.0,37,0.00,CLR,,0.00,WeatherDisplay:10.37,2013-07-11 15:40:00,
2013-07-11 16:50:00,85.0,56.6,30.15,SW,236,3.0,9.0,38,0.00,CLR,,0.00,WeatherDisplay:10.37,2013-07-11 15:50:00,
2013-07-11 17:00:00,83.7,57.5,30.14,WSW,242,2.0,7.0,41,0.00,CLR,,0.00,WeatherDisplay:10.37,2013-07-11 16:00:00,
2013-07-11 17:10:00,82.8,57.3,30.14,SW,214,1.0,9.0,42,0.00,CLR,,0.00,WeatherDisplay:10.37,2013-07-11 16:10:00,
2013-07-11 17:20:00,83.0,58.2,30.14,WSW,237,1.0,7.0,43,0.00,CLR,,0.00,WeatherDisplay:10.37,2013-07-11 16:20:00,
2013-07-11 17:40:00,82.6,59.2,30.14,WSW,241,2.0,6.0,45,0.00,CLR,,0.00,WeatherDisplay:10.37,2013-07-11 16:40:00,
2013-07-11 18:00:00,82.6,59.1,30.14,WSW,257,2.0,7.0,45,0.00,CLR,,0.00,WeatherDisplay:10.37,2013-07-11 17:00:00,
2013-07-11 18:10:00,82.0,58.6,30.14,WSW,247,1.0,6.0,45,0.00,CLR,,0.00,WeatherDisplay:10.37,2013-07-11 17:10:00,
2013-07-11 18:20:00,81.1,59.0,30.13,SW,219,0.0,8.0,47,0.00,CLR,,0.00,WeatherDisplay:10.37,2013-07-11 17:20:00,
2013-07-11 18:40:00,83.3,59.7,30.13,West,268,1.0,5.0,45,0.00,CLR,,0.00,WeatherDisplay:10.37,2013-07-11 17:40:00,
2013-07-11 18:50:00,83.1,60.2,30.13,WSW,245,5.0,6.0,46,0.00,CLR,,0.00,WeatherDisplay:10.37,2013-07-11 17:50:00,
2013-07-11 19:00:00,80.9,58.8,30.13,SSW,212,7.0,9.0,47,0.00,CLR,,0.00,WeatherDisplay:10.37,2013-07-11 18:00:00,
2013-07-11 19:10:00,78.2,58.6,30.13,SSW,205,8.0,11.0,51,0.00,CLR,,0.00,WeatherDisplay:10.37,2013-07-11 18:10:00,
2013-07-11 19:20:00,77.0,58.6,30.12,SW,220,6.0,12.0,53,0.00,CLR,,0.00,WeatherDisplay:10.37,2013-07-11 18:20:00,
2013-07-11 19:30:00,75.4,58.6,30.13,SW,222,8.0,13.0,56,0.00,CLR,,0.00,WeatherDisplay:10.37,2013-07-11 18:30:00,
2013-07-11 19:40:00,74.5,58.7,30.14,SW,232,1.0,12.0,58,0.00,CLR,,0.00,WeatherDisplay:10.37,2013-07-11 18:40:00,
2013-07-11 19:50:00,74.8,59.5,30.14,WSW,246,2.0,4.0,59,0.00,CLR,,0.00,WeatherDisplay:10.37,2013-07-11 18:50:00,
2013-07-11 20:00:00,76.5,60.6,30.13,West,262,1.0,5.0,58,0.00,CLR,,0.00,WeatherDisplay:10.37,2013-07-11 19:00:00,
2013-07-11 20:10:00,75.4,59.1,30.13,WNW,294,2.0,3.0,57,0.00,CLR,,0.00,WeatherDisplay:10.37,2013-07-11 19:10:00,
2013-07-11 20:50:00,71.1,57.4,30.13,NW,304,0.0,3.0,62,0.00,CLR,,0.00,WeatherDisplay:10.37,2013-07-11 19:50:00,
2013-07-11 21:00:00,70.2,57.4,30.13,NNE,29,2.0,3.0,64,0.00,CLR,,0.00,WeatherDisplay:10.37,2013-07-11 20:00:00,
2013-07-11 21:10:00,68.9,57.5,30.14,ENE,77,5.0,5.0,67,0.00,CLR,,0.00,WeatherDisplay:10.37,2013-07-11 20:10:00,
2013-07-11 21:20:00,67.6,57.5,30.14,East,79,5.0,7.0,70,0.00,CLR,,0.00,WeatherDisplay:10.37,2013-07-11 20:20:00,
2013-07-11 21:30:00,66.5,57.2,30.13,ENE,64,1.0,5.0,72,0.00,CLR,,0.00,WeatherDisplay:10.37,2013-07-11 20:30:00,
2013-07-11 21:40:00,65.2,56.0,30.13,ENE,68,0.0,0.0,72,0.00,CLR,,0.00,WeatherDisplay:10.37,2013-07-11 20:40:00,
2013-07-11 21:50:00,64.0,55.2,30.14,NE,53,0.0,1.0,73,0.00,CLR,,0.00,WeatherDisplay:10.37,2013-07-11 20:50:00,
2013-07-11 22:00:00,63.1,54.7,30.14,NE,45,0.0,2.0,74,0.00,CLR,,0.00,WeatherDisplay:10.37,2013-07-11 21:00:00,
2013-07-11 22:10:00,62.2,54.2,30.14,NE,45,0.0,0.0,75,0.00,CLR,,0.00,WeatherDisplay:10.37,2013-07-11 21:10:00,
2013-07-11 22:20:00,62.1,54.8,30.14,NE,47,1.0,1.0,77,0.00,CLR,,0.00,WeatherDisplay:10.37,2013-07-11 21:20:00,
2013-07-11 22:30:00,61.5,55.0,30.14,ENE,76,0.0,2.0,79,0.00,CLR,,0.00,WeatherDisplay:10.37,2013-07-11 21:30:00,
2013-07-11 22:50:00,60.6,54.4,30.14,NW,315,0.0,1.0,80,0.00,CLR,,0.00,WeatherDisplay:10.37,2013-07-11 21:50:00,
2013-07-11 23:00:00,59.5,53.4,30.14,NW,315,0.0,1.0,80,0.00,CLR,,0.00,WeatherDisplay:10.37,2013-07-11 22:00:00,
2013-07-11 23:10:00,58.8,52.6,30.14,NW,315,0.0,2.0,80,0.00,CLR,,0.00,WeatherDisplay:10.37,2013-07-11 22:10:00,
2013-07-11 23:30:00,57.6,52.1,30.14,NW,315,0.0,1.0,82,0.00,CLR,,0.00,WeatherDisplay:10.37,2013-07-11 22:30:00,
2013-07-11 23:40:00,57.0,51.6,30.14,NW,315,0.0,0.0,82,0.00,CLR,,0.00,WeatherDisplay:10.37,2013-07-11 22:40:00,